Zenith Leader — 2ACU6 — position and weather

sailwx.info

Track history (hours):
 
Tides and Currents Weather Stations Pressure Air Temp Water Temp Dewpoint Dewpoint Depression Visibility Wind Speed Wind Dir Waves Ship Positions

Zenith Leader

Last reported at 2014-Sep-28 08:08 UTC. Time now 2014-Sep-30 15:58 UTC.
Position N 01°15' E 104°11'.

Length 199 m; draft 9 m.

Type: Cargo ship. MMSI: 235058697.

Date/timePositionNaut miles runAvg speedWind from/ knotsBaromVisibWave heightAir tempDewpointWater temp
2014-Sep-28 08:08N 01°15' E 104°11'1016.9
2014-Sep-28 07:33N 01°14' E 104°01'1212.4
2014-Sep-28 06:33N 01°12' E 103°49'7 6.4
2014-Sep-28 05:31N 01°17' E 103°45'0 0.0
2014-Sep-28 04:31N 01°17' E 103°45'0 0.0
2014-Sep-28 03:31N 01°17' E 103°45'0 0.0
2014-Sep-28 02:31N 01°17' E 103°45'0 0.0
2014-Sep-28 01:31N 01°17' E 103°45'0 0.0
2014-Sep-28 00:31N 01°17' E 103°45'0 0.0
2014-Sep-27 23:31N 01°17' E 103°45'0 0.0
2014-Sep-27 22:31N 01°17' E 103°45'0 0.0
2014-Sep-27 21:31N 01°17' E 103°45'0 0.0
2014-Sep-27 20:31N 01°17' E 103°45'0 0.0
2014-Sep-27 19:28N 01°17' E 103°45'0 0.0
2014-Sep-27 18:31N 01°17' E 103°45'0 0.0
2014-Sep-27 17:31N 01°17' E 103°45'0 0.1
2014-Sep-27 16:33N 01°17' E 103°45'3 2.8
2014-Sep-27 15:33N 01°15' E 103°47'8 7.6
2014-Sep-27 14:33N 01°14' E 103°54'3 3.2
2014-Sep-27 13:33N 01°17' E 103°56'0 0.0
2014-Sep-27 12:33N 01°17' E 103°56'0 0.0
2014-Sep-27 11:33N 01°17' E 103°56'0 0.1
2014-Sep-27 10:33N 01°17' E 103°56'0 0.0
2014-Sep-27 09:33N 01°17' E 103°56'0 0.1
2014-Sep-27 08:33N 01°17' E 103°56'0 0.0
2014-Sep-27 07:33N 01°17' E 103°56'0 0.1
2014-Sep-27 06:30N 01°17' E 103°56'0 0.0
2014-Sep-27 05:33N 01°17' E 103°56'0 0.0
2014-Sep-27 04:30N 01°17' E 103°56'0 0.0
2014-Sep-27 03:33N 01°17' E 103°56'0 0.0
2014-Sep-27 02:33N 01°17' E 103°56'0 0.0
2014-Sep-27 01:33N 01°17' E 103°56'0 0.0
2014-Sep-27 00:33N 01°17' E 103°56'0 0.0
2014-Sep-26 23:33N 01°17' E 103°56'0 0.0
2014-Sep-26 22:33N 01°17' E 103°56'0 0.0
2014-Sep-26 21:33N 01°17' E 103°56'0 0.0
2014-Sep-26 20:33N 01°17' E 103°56'0 0.0
2014-Sep-26 19:33N 01°17' E 103°56'0 0.0
2014-Sep-26 18:33N 01°17' E 103°56'0 0.0
2014-Sep-26 17:30N 01°17' E 103°56'0 0.0
2014-Sep-26 16:33N 01°17' E 103°56'0 0.0
2014-Sep-26 15:33N 01°17' E 103°56'0 0.0
2014-Sep-26 14:33N 01°17' E 103°56'0 0.0
2014-Sep-26 13:33N 01°17' E 103°56'0 0.0
2014-Sep-26 12:33N 01°17' E 103°56'0 0.0
2014-Sep-26 11:33N 01°17' E 103°56'0 0.0
2014-Sep-26 10:33N 01°17' E 103°56'0 0.0
2014-Sep-26 09:33N 01°17' E 103°56'0 0.1
2014-Sep-26 08:33N 01°17' E 103°56'0 0.0
2014-Sep-26 07:33N 01°17' E 103°56'0 0.0
2014-Sep-26 06:33N 01°17' E 103°56'0 0.1
2014-Sep-26 05:33N 01°17' E 103°56'0 0.0
2014-Sep-26 04:33N 01°17' E 103°56'0 0.0
2014-Sep-26 03:33N 01°17' E 103°56'0 0.0
2014-Sep-26 02:33N 01°17' E 103°56'0 0.0
2014-Sep-26 01:33N 01°17' E 103°56'0 0.0
2014-Sep-26 00:33N 01°17' E 103°56'0 0.1
2014-Sep-25 23:33N 01°17' E 103°56'0 0.0
2014-Sep-25 22:33N 01°17' E 103°56'0 0.0
2014-Sep-25 21:33N 01°17' E 103°56'0 0.0
2014-Sep-25 20:33N 01°17' E 103°56'0 0.0
2014-Sep-25 19:33N 01°17' E 103°56'0 0.0
2014-Sep-25 18:33N 01°17' E 103°56'0 0.0
2014-Sep-25 17:33N 01°17' E 103°56'0 0.1
2014-Sep-25 16:33N 01°17' E 103°56'0 0.0
2014-Sep-25 15:33N 01°17' E 103°56'0 0.0
2014-Sep-25 14:33N 01°17' E 103°56'0 0.0
2014-Sep-25 13:33N 01°17' E 103°56'0 0.0
2014-Sep-25 12:33N 01°17' E 103°56'0 0.0
2014-Sep-25 11:33N 01°17' E 103°56'0 0.0
2014-Sep-25 10:33N 01°17' E 103°56'0 0.1
2014-Sep-25 09:33N 01°17' E 103°56'0 0.0
2014-Sep-25 08:33N 01°17' E 103°56'0 0.0
2014-Sep-25 07:33N 01°17' E 103°56'0 0.0
2014-Sep-25 06:33N 01°17' E 103°56'0 0.0
2014-Sep-25 05:33N 01°17' E 103°56'2 2.1
2014-Sep-25 04:33N 01°16' E 103°58'3 3.2
2014-Sep-25 03:33N 01°13' E 103°56'8 7.7
2014-Sep-25 02:33N 01°10' E 103°49'1010.1
2014-Sep-25 01:33N 01°03' E 103°41'8 8.5
2014-Sep-25 00:33N 01°06' E 103°33'9 8.6
2014-Sep-24 23:33N 01°11' E 103°26'9 8.3
2014-Sep-24 22:25N 01°17' E 103°18'  
Track history (hours):
 
Tides and Currents Weather Stations Pressure Air Temp Water Temp Dewpoint Dewpoint Depression Visibility Wind Speed Wind Dir Waves Ship Positions

Zenith Leader

Last reported at 2014-Sep-28 08:08 UTC. Time now 2014-Sep-30 15:58 UTC.
Position N 01°15' E 104°11'.

Length 199 m; draft 9 m.

Type: Cargo ship. MMSI: 235058697.

Date/timePositionNaut miles runAvg speedWind from/ knotsBaromVisibWave heightAir tempDewpointWater temp
2014-Sep-28 08:08N 01°15' E 104°11'1016.9
2014-Sep-28 07:33N 01°14' E 104°01'1212.4
2014-Sep-28 06:33N 01°12' E 103°49'7 6.4
2014-Sep-28 05:31N 01°17' E 103°45'0 0.0
2014-Sep-28 04:31N 01°17' E 103°45'0 0.0
2014-Sep-28 03:31N 01°17' E 103°45'0 0.0
2014-Sep-28 02:31N 01°17' E 103°45'0 0.0
2014-Sep-28 01:31N 01°17' E 103°45'0 0.0
2014-Sep-28 00:31N 01°17' E 103°45'0 0.0
2014-Sep-27 23:31N 01°17' E 103°45'0 0.0
2014-Sep-27 22:31N 01°17' E 103°45'0 0.0
2014-Sep-27 21:31N 01°17' E 103°45'0 0.0
2014-Sep-27 20:31N 01°17' E 103°45'0 0.0
2014-Sep-27 19:28N 01°17' E 103°45'0 0.0
2014-Sep-27 18:31N 01°17' E 103°45'0 0.0
2014-Sep-27 17:31N 01°17' E 103°45'0 0.1
2014-Sep-27 16:33N 01°17' E 103°45'3 2.8
2014-Sep-27 15:33N 01°15' E 103°47'8 7.6
2014-Sep-27 14:33N 01°14' E 103°54'3 3.2
2014-Sep-27 13:33N 01°17' E 103°56'0 0.0
2014-Sep-27 12:33N 01°17' E 103°56'0 0.0
2014-Sep-27 11:33N 01°17' E 103°56'0 0.1
2014-Sep-27 10:33N 01°17' E 103°56'0 0.0
2014-Sep-27 09:33N 01°17' E 103°56'0 0.1
2014-Sep-27 08:33N 01°17' E 103°56'0 0.0
2014-Sep-27 07:33N 01°17' E 103°56'0 0.1
2014-Sep-27 06:30N 01°17' E 103°56'0 0.0
2014-Sep-27 05:33N 01°17' E 103°56'0 0.0
2014-Sep-27 04:30N 01°17' E 103°56'0 0.0
2014-Sep-27 03:33N 01°17' E 103°56'0 0.0
2014-Sep-27 02:33N 01°17' E 103°56'0 0.0
2014-Sep-27 01:33N 01°17' E 103°56'0 0.0
2014-Sep-27 00:33N 01°17' E 103°56'0 0.0
2014-Sep-26 23:33N 01°17' E 103°56'0 0.0
2014-Sep-26 22:33N 01°17' E 103°56'0 0.0
2014-Sep-26 21:33N 01°17' E 103°56'0 0.0
2014-Sep-26 20:33N 01°17' E 103°56'0 0.0
2014-Sep-26 19:33N 01°17' E 103°56'0 0.0
2014-Sep-26 18:33N 01°17' E 103°56'0 0.0
2014-Sep-26 17:30N 01°17' E 103°56'0 0.0
2014-Sep-26 16:33N 01°17' E 103°56'0 0.0
2014-Sep-26 15:33N 01°17' E 103°56'0 0.0
2014-Sep-26 14:33N 01°17' E 103°56'0 0.0
2014-Sep-26 13:33N 01°17' E 103°56'0 0.0
2014-Sep-26 12:33N 01°17' E 103°56'0 0.0
2014-Sep-26 11:33N 01°17' E 103°56'0 0.0
2014-Sep-26 10:33N 01°17' E 103°56'0 0.0
2014-Sep-26 09:33N 01°17' E 103°56'0 0.1
2014-Sep-26 08:33N 01°17' E 103°56'0 0.0
2014-Sep-26 07:33N 01°17' E 103°56'0 0.0
2014-Sep-26 06:33N 01°17' E 103°56'0 0.1
2014-Sep-26 05:33N 01°17' E 103°56'0 0.0
2014-Sep-26 04:33N 01°17' E 103°56'0 0.0
2014-Sep-26 03:33N 01°17' E 103°56'0 0.0
2014-Sep-26 02:33N 01°17' E 103°56'0 0.0
2014-Sep-26 01:33N 01°17' E 103°56'0 0.0
2014-Sep-26 00:33N 01°17' E 103°56'0 0.1
2014-Sep-25 23:33N 01°17' E 103°56'0 0.0
2014-Sep-25 22:33N 01°17' E 103°56'0 0.0
2014-Sep-25 21:33N 01°17' E 103°56'0 0.0
2014-Sep-25 20:33N 01°17' E 103°56'0 0.0
2014-Sep-25 19:33N 01°17' E 103°56'0 0.0
2014-Sep-25 18:33N 01°17' E 103°56'0 0.0
2014-Sep-25 17:33N 01°17' E 103°56'0 0.1
2014-Sep-25 16:33N 01°17' E 103°56'0 0.0
2014-Sep-25 15:33N 01°17' E 103°56'0 0.0
2014-Sep-25 14:33N 01°17' E 103°56'0 0.0
2014-Sep-25 13:33N 01°17' E 103°56'0 0.0
2014-Sep-25 12:33N 01°17' E 103°56'0 0.0
2014-Sep-25 11:33N 01°17' E 103°56'0 0.0
2014-Sep-25 10:33N 01°17' E 103°56'0 0.1
2014-Sep-25 09:33N 01°17' E 103°56'0 0.0
2014-Sep-25 08:33N 01°17' E 103°56'0 0.0
2014-Sep-25 07:33N 01°17' E 103°56'0 0.0
2014-Sep-25 06:33N 01°17' E 103°56'0 0.0
2014-Sep-25 05:33N 01°17' E 103°56'2 2.1
2014-Sep-25 04:33N 01°16' E 103°58'3 3.2
2014-Sep-25 03:33N 01°13' E 103°56'8 7.7
2014-Sep-25 02:33N 01°10' E 103°49'1010.1
2014-Sep-25 01:33N 01°03' E 103°41'8 8.5
2014-Sep-25 00:33N 01°06' E 103°33'9 8.6
2014-Sep-24 23:33N 01°11' E 103°26'9 8.3
2014-Sep-24 22:25N 01°17' E 103°18'  

Dump ship's entire track history